Arch, New Mexico
Current Conditions -  °F | °C
As of 10:58 PM on Wednesday 22 Oct 2014 (Local Time) from KCVS Reporting Station
Haze Haze  
Wind Chill: 56°   Ceiling: Unl
Heat Index: 56°   Visibility: 5mi
Dew Point: 55°   Wind: 7mph
Humidity: 96%   Direction: 190°S
Pressure: 30.15"   Gusts: NA
Location:  34.1669°N, 103.266°W
Report Text: KCVS 230458Z 19006KT 5SM R22/5500FT HZ CLR 13/13 A3015 RMK AO2A SLP175 T01310125 $
Loading
Personal Weather Stations






























Interactive Weather Map
Tropical Storm Tracking
New forecast layout! Learn more

10-Day Weather Forecast

Advertisements
Track Severe Weather on mobile